Time;durP1;ratioP1;P1;durP2;ratioP2;P2;SDS_P1;SDS_P2;PMS_P1;PMS_P2;Temp;Humidity;BMP_temperature;BMP_pressure;BME280_temperature;BME280_humidity;BME280_pressure;Samples;Min_cycle;Max_cycle;Signal;HPM_P1;HPM_P2
2020/12/11 00:00:55;;;;;;;45.43;21.37;;;;;;;;;;4361056;32;20158;-78
2020/12/11 00:03:21;;;;;;;42.97;21.03;;;;;;;;;;4376428;32;20123;-78
2020/12/11 00:05:51;;;;;;;43.47;20.07;;;;;;;;;;4374633;32;20214;-78
2020/12/11 00:08:30;;;;;;;42.17;19.90;;;;;;;;;;4374924;32;20130;-77
2020/12/11 00:10:56;;;;;;;42.40;20.53;;;;;;;;;;4361825;32;20165;-77
2020/12/11 00:13:24;;;;;;;44.97;20.77;;;;;;;;;;4361431;32;20149;-77
2020/12/11 00:15:49;;;;;;;46.27;20.13;;;;;;;;;;4360870;32;20162;-78
2020/12/11 00:18:15;;;;;;;42.03;19.93;;;;;;;;;;4360918;32;20194;-77
2020/12/11 00:20:40;;;;;;;43.57;20.20;;;;;;;;;;4361145;32;20181;-77
2020/12/11 00:23:08;;;;;;;43.93;20.60;;;;;;;;;;4360841;32;20562;-78
2020/12/11 00:25:36;;;;;;;39.90;19.80;;;;;;;;;;4361413;32;20151;-78
2020/12/11 00:28:02;;;;;;;39.47;19.57;;;;;;;;;;4360799;32;20155;-78
2020/12/11 00:30:27;;;;;;;36.30;19.03;;;;;;;;;;4361981;32;20208;-78
2020/12/11 00:32:53;;;;;;;37.60;18.57;;;;;;;;;;4360835;32;20220;-78
2020/12/11 00:35:19;;;;;;;35.50;19.07;;;;;;;;;;4360864;32;20163;-78
2020/12/11 00:37:44;;;;;;;39.50;18.83;;;;;;;;;;4363455;32;20329;-78
2020/12/11 00:40:15;;;;;;;36.80;18.70;;;;;;;;;;4364084;32;20184;-78
2020/12/11 00:42:50;;;;;;;37.83;18.03;;;;;;;;;;4363085;32;20154;-79
2020/12/11 00:45:22;;;;;;;36.63;17.67;;;;;;;;;;4364260;32;20305;-80
2020/12/11 00:47:57;;;;;;;38.70;17.97;;;;;;;;;;4363845;32;20167;-78
2020/12/11 00:50:34;;;;;;;41.97;18.60;;;;;;;;;;4364901;32;20216;-77
2020/12/11 00:53:05;;;;;;;41.03;19.87;;;;;;;;;;4363691;32;20150;-78
2020/12/11 00:55:31;;;;;;;37.87;17.47;;;;;;;;;;4364203;32;20166;-78
2020/12/11 00:57:59;;;;;;;38.03;18.50;;;;;;;;;;4363517;32;20537;-78
2020/12/11 01:00:24;;;;;;;39.17;18.23;;;;;;;;;;4363457;32;20320;-78
2020/12/11 01:02:52;;;;;;;37.10;18.23;;;;;;;;;;4364155;32;20150;-78
2020/12/11 01:05:20;;;;;;;37.93;18.07;;;;;;;;;;4363703;32;20170;-78
2020/12/11 01:07:48;;;;;;;39.93;17.97;;;;;;;;;;4363252;32;20151;-78
2020/12/11 01:10:14;;;;;;;35.23;18.20;;;;;;;;;;4363870;32;20163;-78
2020/12/11 01:12:50;;;;;;;35.40;17.83;;;;;;;;;;4377322;32;20130;-78
2020/12/11 01:15:16;;;;;;;35.00;16.57;;;;;;;;;;4363799;32;20150;-78
2020/12/11 01:17:44;;;;;;;35.10;19.07;;;;;;;;;;4363569;32;20595;-78
2020/12/11 01:20:09;;;;;;;36.50;17.57;;;;;;;;;;4363161;32;20185;-79
2020/12/11 01:22:34;;;;;;;35.53;17.33;;;;;;;;;;4363137;32;20629;-78
2020/12/11 01:25:03;;;;;;;33.60;16.80;;;;;;;;;;4363162;32;20589;-78
2020/12/11 01:27:36;;;;;;;38.97;17.50;;;;;;;;;;4363135;32;20158;-78
2020/12/11 01:30:07;;;;;;;38.40;18.73;;;;;;;;;;4363508;32;20520;-78
2020/12/11 01:32:35;;;;;;;37.63;17.67;;;;;;;;;;4362949;32;20261;-78
2020/12/11 01:35:00;;;;;;;36.73;19.13;;;;;;;;;;4363222;32;20193;-78
2020/12/11 01:37:26;;;;;;;32.80;17.40;;;;;;;;;;4363270;32;20595;-78
2020/12/11 01:39:54;;;;;;;43.07;18.83;;;;;;;;;;4363240;32;20154;-78
2020/12/11 01:42:20;;;;;;;37.23;18.80;;;;;;;;;;4362724;32;20180;-78
2020/12/11 01:44:49;;;;;;;37.67;17.53;;;;;;;;;;4362566;32;20495;-78
2020/12/11 01:47:15;;;;;;;37.43;18.50;;;;;;;;;;4362889;32;20161;-78
2020/12/11 01:49:40;;;;;;;37.13;18.03;;;;;;;;;;4362238;32;20646;-78
2020/12/11 01:52:06;;;;;;;37.00;17.77;;;;;;;;;;4376277;32;20540;-78
2020/12/11 01:54:32;;;;;;;36.67;18.10;;;;;;;;;;4362956;32;20594;-78
2020/12/11 01:57:04;;;;;;;39.77;18.50;;;;;;;;;;4362678;32;20216;-78
2020/12/11 01:59:40;;;;;;;38.80;18.97;;;;;;;;;;4362468;32;20495;-78
2020/12/11 02:02:06;;;;;;;36.87;16.80;;;;;;;;;;4362715;32;20275;-78
2020/12/11 02:04:34;;;;;;;34.77;18.20;;;;;;;;;;4362518;32;20155;-78
2020/12/11 02:07:05;;;;;;;40.33;18.23;;;;;;;;;;4362911;32;20151;-78
2020/12/11 02:09:33;;;;;;;36.03;17.70;;;;;;;;;;4373864;32;20221;-78
2020/12/11 02:11:59;;;;;;;38.47;18.87;;;;;;;;;;4377418;32;20177;-77
2020/12/11 02:14:27;;;;;;;38.10;17.73;;;;;;;;;;4377362;32;20221;-77
2020/12/11 02:16:59;;;;;;;41.50;19.00;;;;;;;;;;4377316;32;20579;-78
2020/12/11 02:19:33;;;;;;;39.87;19.30;;;;;;;;;;4378195;32;20217;-77
2020/12/11 02:22:05;;;;;;;36.03;18.40;;;;;;;;;;4390856;32;20142;-78
2020/12/11 02:24:38;;;;;;;37.97;18.23;;;;;;;;;;4391039;32;20131;-78
2020/12/11 02:27:09;;;;;;;37.70;18.03;;;;;;;;;;4377449;32;20637;-78
2020/12/11 02:29:37;;;;;;;35.70;17.47;;;;;;;;;;4377308;32;20197;-78
2020/12/11 02:32:14;;;;;;;37.93;18.40;;;;;;;;;;4377722;32;20150;-78
2020/12/11 02:34:40;;;;;;;39.27;19.20;;;;;;;;;;4377677;32;20469;-78
2020/12/11 02:37:05;;;;;;;36.30;18.43;;;;;;;;;;4377188;32;20235;-78
2020/12/11 02:39:36;;;;;;;40.13;19.70;;;;;;;;;;4377267;32;20237;-78
2020/12/11 02:42:06;;;;;;;38.93;18.87;;;;;;;;;;4377835;32;20158;-77
2020/12/11 02:44:40;;;;;;;39.13;18.73;;;;;;;;;;4390847;32;20692;-78
2020/12/11 02:47:11;;;;;;;40.43;18.80;;;;;;;;;;4377759;32;20229;-78
2020/12/11 02:49:39;;;;;;;39.37;19.00;;;;;;;;;;4377295;32;20510;-77
2020/12/11 02:52:04;;;;;;;38.50;18.23;;;;;;;;;;4377758;32;20228;-77
2020/12/11 02:54:35;;;;;;;36.73;18.30;;;;;;;;;;4377132;32;20586;-78
2020/12/11 02:57:00;;;;;;;43.53;18.23;;;;;;;;;;4377137;32;20177;-78
2020/12/11 02:59:25;;;;;;;39.03;18.67;;;;;;;;;;4376733;32;20784;-78
2020/12/11 03:01:51;;;;;;;37.90;18.80;;;;;;;;;;4376849;32;20153;-77
2020/12/11 03:04:18;;;;;;;42.37;18.87;;;;;;;;;;4376669;32;20158;-78
2020/12/11 03:06:43;;;;;;;32.90;18.13;;;;;;;;;;4376965;32;20155;-77
2020/12/11 03:09:12;;;;;;;36.60;18.10;;;;;;;;;;4376509;32;20246;-77
2020/12/11 03:11:47;;;;;;;34.40;17.33;;;;;;;;;;4376176;32;20315;-77
2020/12/11 03:14:12;;;;;;;37.27;18.27;;;;;;;;;;4376990;32;20142;-77
2020/12/11 03:16:40;;;;;;;31.90;16.70;;;;;;;;;;4390364;32;20130;-77
2020/12/11 03:19:10;;;;;;;34.23;17.37;;;;;;;;;;4386089;32;20526;-78
2020/12/11 03:21:41;;;;;;;32.53;17.77;;;;;;;;;;4358215;32;20241;-78
2020/12/11 03:24:06;;;;;;;32.43;17.43;;;;;;;;;;4372610;32;20162;-78
2020/12/11 03:26:37;;;;;;;36.03;17.47;;;;;;;;;;4361211;32;20430;-78
2020/12/11 03:29:13;;;;;;;33.03;17.07;;;;;;;;;;4361194;32;20521;-78
2020/12/11 03:31:42;;;;;;;27.67;15.40;;;;;;;;;;4361825;32;20150;-78
2020/12/11 03:34:16;;;;;;;32.13;16.60;;;;;;;;;;4363551;32;20162;-77
2020/12/11 03:36:44;;;;;;;28.67;16.03;;;;;;;;;;4390431;32;20149;-78
2020/12/11 03:39:15;;;;;;;30.67;16.53;;;;;;;;;;4376283;32;20177;-78
2020/12/11 03:41:43;;;;;;;30.07;16.47;;;;;;;;;;4376544;32;20146;-78
2020/12/11 03:44:14;;;;;;;32.97;16.60;;;;;;;;;;4375645;32;20159;-77
2020/12/11 03:46:39;;;;;;;35.87;17.03;;;;;;;;;;4376281;32;20221;-77
2020/12/11 03:49:10;;;;;;;31.93;17.13;;;;;;;;;;4375931;32;20177;-77
2020/12/11 03:51:49;;;;;;;35.40;17.47;;;;;;;;;;4376591;32;20530;-77
2020/12/11 03:54:18;;;;;;;30.70;16.03;;;;;;;;;;4376910;32;20638;-78
2020/12/11 03:56:43;;;;;;;32.57;16.63;;;;;;;;;;4390047;32;20127;-77
2020/12/11 03:59:11;;;;;;;30.73;15.80;;;;;;;;;;4376071;32;20644;-77
2020/12/11 04:01:47;;;;;;;34.47;17.30;;;;;;;;;;4375890;32;20575;-77
2020/12/11 04:04:15;;;;;;;31.83;17.10;;;;;;;;;;4370501;32;20512;-78
2020/12/11 04:06:40;;;;;;;29.50;15.83;;;;;;;;;;4371811;32;20464;-77
2020/12/11 04:09:06;;;;;;;34.53;18.00;;;;;;;;;;4375962;32;20177;-77
2020/12/11 04:11:31;;;;;;;31.43;16.60;;;;;;;;;;4375691;32;20595;-77
2020/12/11 04:13:59;;;;;;;31.13;16.23;;;;;;;;;;4375968;32;20571;-77
2020/12/11 04:16:24;;;;;;;28.87;15.70;;;;;;;;;;4376646;32;20149;-77
2020/12/11 04:18:50;;;;;;;32.23;16.10;;;;;;;;;;4376142;32;20181;-77
2020/12/11 04:21:17;;;;;;;30.83;15.53;;;;;;;;;;4375876;32;20295;-78
2020/12/11 04:23:43;;;;;;;32.80;16.70;;;;;;;;;;4375649;32;20584;-77
2020/12/11 04:26:11;;;;;;;30.87;16.10;;;;;;;;;;4376122;32;20206;-77
2020/12/11 04:28:41;;;;;;;29.70;15.70;;;;;;;;;;4375839;32;20174;-78
2020/12/11 04:31:12;;;;;;;29.97;16.13;;;;;;;;;;4369625;32;20275;-77
2020/12/11 04:33:37;;;;;;;27.67;14.80;;;;;;;;;;4375813;32;20155;-78
2020/12/11 04:36:15;;;;;;;28.23;15.13;;;;;;;;;;4375629;32;20204;-77
2020/12/11 04:38:48;;;;;;;29.37;15.50;;;;;;;;;;4376720;32;20556;-77
2020/12/11 04:41:15;;;;;;;26.87;14.63;;;;;;;;;;4376359;32;20618;-77
2020/12/11 04:43:46;;;;;;;30.40;15.87;;;;;;;;;;4367011;32;20612;-77
2020/12/11 04:46:12;;;;;;;27.57;15.33;;;;;;;;;;4362011;32;20210;-77
2020/12/11 04:48:37;;;;;;;25.60;14.40;;;;;;;;;;4360929;32;20159;-77
2020/12/11 04:51:25;;;;;;;28.07;15.07;;;;;;;;;;4360971;32;20170;-78
2020/12/11 04:53:56;;;;;;;28.07;14.70;;;;;;;;;;4360763;32;20658;-77
2020/12/11 04:56:27;;;;;;;29.40;14.87;;;;;;;;;;4360558;32;20634;-77
2020/12/11 04:58:53;;;;;;;27.83;14.70;;;;;;;;;;4360559;32;20150;-77
2020/12/11 05:01:30;;;;;;;24.97;14.23;;;;;;;;;;4360454;32;20500;-77
2020/12/11 05:04:03;;;;;;;29.10;15.70;;;;;;;;;;4360703;32;20190;-77
2020/12/11 05:06:28;;;;;;;25.03;14.50;;;;;;;;;;4361028;32;20158;-78
2020/12/11 05:09:10;;;;;;;26.73;14.43;;;;;;;;;;4360699;32;20694;-78
2020/12/11 05:11:38;;;;;;;28.73;14.43;;;;;;;;;;4362591;32;20275;-77
2020/12/11 05:14:03;;;;;;;29.90;15.93;;;;;;;;;;4374935;32;20197;-78
2020/12/11 05:16:29;;;;;;;26.57;14.73;;;;;;;;;;4375567;32;20600;-78
2020/12/11 05:19:09;;;;;;;25.77;13.80;;;;;;;;;;4389793;32;20713;-78
2020/12/11 05:21:40;;;;;;;26.90;14.80;;;;;;;;;;4375788;32;20610;-78
2020/12/11 05:24:07;;;;;;;27.73;14.70;;;;;;;;;;4376999;32;20181;-78
2020/12/11 05:26:34;;;;;;;27.10;13.97;;;;;;;;;;4391759;32;20479;-78
2020/12/11 05:29:03;;;;;;;28.47;16.13;;;;;;;;;;4377946;32;20240;-78
2020/12/11 05:32:07;;;;;;;32.60;15.67;;;;;;;;;;4378431;32;20154;-78
2020/12/11 05:34:29;;;;;;;26.30;14.47;;;;;;;;;;4388965;32;20552;-78
2020/12/11 05:37:05;;;;;;;26.47;14.50;;;;;;;;;;4377928;32;20154;-78
2020/12/11 05:39:32;;;;;;;28.40;15.00;;;;;;;;;;4365761;32;20146;-78
2020/12/11 05:42:09;;;;;;;30.13;16.03;;;;;;;;;;4377818;32;20154;-78
2020/12/11 05:44:40;;;;;;;30.10;15.77;;;;;;;;;;4378323;32;20233;-78
2020/12/11 05:47:28;;;;;;;29.73;15.17;;;;;;;;;;4377811;32;20228;-78
2020/12/11 05:50:19;;;;;;;27.77;15.40;;;;;;;;;;4378381;32;20619;-78
2020/12/11 05:52:47;;;;;;;24.83;14.93;;;;;;;;;;4390589;32;20165;-79
2020/12/11 05:55:19;;;;;;;30.87;15.27;;;;;;;;;;4361752;32;20547;-78
2020/12/11 05:57:56;;;;;;;27.27;13.67;;;;;;;;;;4363076;32;20313;-78
2020/12/11 06:00:30;;;;;;;26.33;13.73;;;;;;;;;;4362523;32;20146;-78
2020/12/11 06:02:56;;;;;;;25.93;14.20;;;;;;;;;;4363041;32;20664;-79
2020/12/11 06:05:22;;;;;;;28.37;15.37;;;;;;;;;;4362491;32;20170;-77
2020/12/11 06:07:54;;;;;;;25.17;14.20;;;;;;;;;;4362648;32;20177;-78
2020/12/11 06:10:23;;;;;;;32.23;14.67;;;;;;;;;;4362402;32;20151;-78
2020/12/11 06:12:49;;;;;;;25.07;13.23;;;;;;;;;;4362251;32;20205;-78
2020/12/11 06:15:21;;;;;;;25.97;14.00;;;;;;;;;;4362114;32;20201;-79
2020/12/11 06:18:10;;;;;;;29.83;14.03;;;;;;;;;;4362756;32;20154;-78
2020/12/11 06:20:47;;;;;;;26.73;14.57;;;;;;;;;;4362858;32;20193;-79
2020/12/11 06:23:26;;;;;;;26.27;14.50;;;;;;;;;;4357144;32;20240;-77
2020/12/11 06:26:22;;;;;;;25.27;14.40;;;;;;;;;;4362708;32;20249;-78
2020/12/11 06:29:09;;;;;;;25.63;14.63;;;;;;;;;;4361998;32;20580;-78
2020/12/11 06:31:46;;;;;;;25.73;13.67;;;;;;;;;;4362759;32;20143;-79
2020/12/11 06:34:24;;;;;;;27.93;14.77;;;;;;;;;;4362518;32;20150;-78
2020/12/11 06:36:50;;;;;;;28.87;14.90;;;;;;;;;;4360667;32;20151;-78
2020/12/11 06:39:34;;;;;;;25.30;13.43;;;;;;;;;;4362183;32;20273;-78
2020/12/11 06:42:06;;;;;;;27.07;14.20;;;;;;;;;;4361942;32;20185;-78
2020/12/11 06:44:31;;;;;;;24.50;13.73;;;;;;;;;;4362014;32;20174;-81
2020/12/11 06:47:04;;;;;;;29.03;14.67;;;;;;;;;;4365309;32;20534;-78
2020/12/11 06:49:29;;;;;;;29.03;15.23;;;;;;;;;;4364498;32;20155;-77
2020/12/11 06:51:55;;;;;;;30.63;14.50;;;;;;;;;;4376619;32;20182;-77
2020/12/11 06:54:25;;;;;;;25.87;14.37;;;;;;;;;;4376622;32;20227;-77
2020/12/11 06:56:52;;;;;;;26.73;15.30;;;;;;;;;;4376299;32;20147;-77
2020/12/11 06:59:33;;;;;;;25.20;14.90;;;;;;;;;;4390390;32;20150;-77
2020/12/11 07:02:05;;;;;;;26.70;14.77;;;;;;;;;;4376700;32;20184;-78
2020/12/11 07:04:46;;;;;;;26.73;13.90;;;;;;;;;;4377135;32;20584;-78
2020/12/11 07:07:12;;;;;;;24.90;13.97;;;;;;;;;;4370985;32;20147;-78
2020/12/11 07:09:41;;;;;;;24.57;14.87;;;;;;;;;;4376299;32;20207;-77
2020/12/11 07:12:07;;;;;;;26.57;13.73;;;;;;;;;;4376506;32;20154;-77
2020/12/11 07:14:33;;;;;;;24.37;14.13;;;;;;;;;;4376453;32;20280;-78
2020/12/11 07:17:00;;;;;;;25.63;14.23;;;;;;;;;;4376792;32;20181;-77
2020/12/11 07:19:34;;;;;;;25.20;14.00;;;;;;;;;;4376332;32;20227;-77
2020/12/11 07:22:02;;;;;;;27.00;14.50;;;;;;;;;;4376680;32;20184;-77
2020/12/11 07:24:43;;;;;;;25.07;14.00;;;;;;;;;;4376091;32;20245;-77
2020/12/11 07:27:08;;;;;;;25.90;14.40;;;;;;;;;;4361595;32;20163;-79
2020/12/11 07:29:34;;;;;;;29.33;14.27;;;;;;;;;;4363733;32;20182;-78
2020/12/11 07:32:02;;;;;;;26.30;13.63;;;;;;;;;;4370655;32;20515;-77
2020/12/11 07:34:41;;;;;;;23.57;14.33;;;;;;;;;;4374912;32;20262;-77
2020/12/11 07:37:12;;;;;;;28.13;15.47;;;;;;;;;;4383728;32;20130;-77
2020/12/11 07:39:37;;;;;;;25.60;14.33;;;;;;;;;;4366671;32;20177;-77
2020/12/11 07:42:08;;;;;;;24.23;13.47;;;;;;;;;;4376626;32;20437;-77
2020/12/11 07:44:42;;;;;;;26.63;14.63;;;;;;;;;;4389995;32;20150;-77
2020/12/11 07:47:08;;;;;;;24.57;13.83;;;;;;;;;;4376544;32;20564;-77
2020/12/11 07:49:34;;;;;;;22.70;12.63;;;;;;;;;;4374741;32;20226;-76
2020/12/11 07:52:04;;;;;;;26.13;13.60;;;;;;;;;;4375476;32;20131;-77
2020/12/11 07:54:45;;;;;;;26.40;14.13;;;;;;;;;;4375277;32;20196;-78
2020/12/11 07:57:48;;;;;;;24.90;13.77;;;;;;;;;;4374196;32;20189;-77
2020/12/11 08:00:22;;;;;;;24.23;13.53;;;;;;;;;;4374437;32;20143;-77
2020/12/11 08:03:22;;;;;;;24.37;13.53;;;;;;;;;;4361420;32;20571;-77
2020/12/11 08:08:57;;;;;;;23.77;12.57;;;;;;;;;;4351434;32;20229;-77
2020/12/11 08:11:24;;;;;;;24.03;13.47;;;;;;;;;;4361509;32;20181;-77
2020/12/11 08:13:58;;;;;;;23.87;14.60;;;;;;;;;;4348875;32;20560;-77
2020/12/11 08:16:36;;;;;;;24.57;14.10;;;;;;;;;;4361714;32;20170;-77
2020/12/11 08:19:03;;;;;;;24.77;13.67;;;;;;;;;;4361672;32;20163;-77
2020/12/11 08:21:29;;;;;;;25.37;14.33;;;;;;;;;;4361082;32;20162;-77
2020/12/11 08:23:55;;;;;;;26.87;14.67;;;;;;;;;;4374548;32;20146;-77
2020/12/11 08:26:35;;;;;;;26.50;14.60;;;;;;;;;;4360942;32;20154;-78
2020/12/11 08:29:04;;;;;;;25.77;14.27;;;;;;;;;;4361448;32;20150;-78
2020/12/11 08:31:51;;;;;;;26.97;14.40;;;;;;;;;;4374253;32;20135;-79
2020/12/11 08:37:25;;;;;;;29.67;15.90;;;;;;;;;;4374932;32;20582;-78
2020/12/11 08:40:20;;;;;;;28.00;15.07;;;;;;;;;;4361869;32;20159;-78
2020/12/11 08:46:00;;;;;;;29.90;14.97;;;;;;;;;;4375127;32;20143;-79
2020/12/11 08:48:44;;;;;;;27.47;15.73;;;;;;;;;;4365175;32;20231;-78
2020/12/11 08:51:16;;;;;;;43.60;22.67;;;;;;;;;;4366742;32;20151;-79
2020/12/11 08:53:53;;;;;;;32.43;18.13;;;;;;;;;;4360631;32;20156;-79
2020/12/11 08:56:19;;;;;;;30.23;16.47;;;;;;;;;;4353000;33;20177;-79
2020/12/11 08:58:44;;;;;;;34.17;18.10;;;;;;;;;;4374627;32;20225;-78
2020/12/11 09:01:10;;;;;;;28.53;16.03;;;;;;;;;;4367705;32;20185;-78
2020/12/11 09:03:38;;;;;;;32.47;16.27;;;;;;;;;;4367938;32;20559;-78
2020/12/11 09:06:17;;;;;;;27.50;16.03;;;;;;;;;;4378714;32;20154;-78
2020/12/11 09:09:12;;;;;;;25.90;14.73;;;;;;;;;;4364978;32;20165;-79
2020/12/11 09:11:38;;;;;;;27.57;14.63;;;;;;;;;;4361756;32;20217;-78
2020/12/11 09:14:13;;;;;;;;;;;;;;;;;;;;;
2020/12/11 09:16:39;;;;;;;25.97;15.00;;;;;;;;;;4380393;32;20142;-78
2020/12/11 09:19:04;;;;;;;27.03;13.47;;;;;;;;;;4373355;32;20240;-79
2020/12/11 09:21:35;;;;;;;24.33;13.43;;;;;;;;;;4371625;32;20193;-79
2020/12/11 09:24:00;;;;;;;31.10;15.87;;;;;;;;;;4368358;32;20224;-78
2020/12/11 09:26:28;;;;;;;37.67;20.50;;;;;;;;;;4372047;32;20580;-79
2020/12/11 09:29:06;;;;;;;45.10;24.60;;;;;;;;;;4372671;32;20189;-79
2020/12/11 09:31:32;;;;;;;28.57;16.40;;;;;;;;;;4375520;32;20208;-79
2020/12/11 09:33:57;;;;;;;24.63;13.50;;;;;;;;;;4373274;32;20158;-78
2020/12/11 09:36:24;;;;;;;23.37;12.40;;;;;;;;;;4373120;32;20226;-79
2020/12/11 09:38:52;;;;;;;23.17;14.23;;;;;;;;;;4376496;32;20162;-79
2020/12/11 09:41:29;;;;;;;22.33;12.93;;;;;;;;;;4376937;32;20154;-79
2020/12/11 09:49:11;;;;;;;24.27;13.10;;;;;;;;;;4387611;32;20648;-79
2020/12/11 09:54:15;;;;;;;19.67;12.53;;;;;;;;;;4386179;32;20192;-79
2020/12/11 09:56:40;;;;;;;22.17;13.30;;;;;;;;;;4371366;32;20151;-80
2020/12/11 09:59:17;;;;;;;21.27;12.30;;;;;;;;;;4371486;32;20193;-79
2020/12/11 10:04:25;;;;;;;21.80;13.23;;;;;;;;;;4363870;32;20171;-78
2020/12/11 10:06:59;;;;;;;20.67;11.97;;;;;;;;;;4369178;32;20167;-78
2020/12/11 10:09:24;;;;;;;22.03;12.70;;;;;;;;;;4368180;32;20178;-78
2020/12/11 10:11:51;;;;;;;23.40;13.33;;;;;;;;;;4369656;32;20163;-78
2020/12/11 10:14:31;;;;;;;23.67;13.87;;;;;;;;;;4364917;32;20181;-79
2020/12/11 10:16:56;;;;;;;23.20;13.70;;;;;;;;;;4363028;32;20250;-78
2020/12/11 10:19:22;;;;;;;24.43;13.27;;;;;;;;;;4371714;32;20163;-79
2020/12/11 10:21:53;;;;;;;26.00;14.60;;;;;;;;;;4372197;32;20182;-79
2020/12/11 10:24:19;;;;;;;25.17;13.63;;;;;;;;;;4372600;32;20163;-79
2020/12/11 10:26:45;;;;;;;24.70;14.37;;;;;;;;;;4366301;32;20236;-78
2020/12/11 10:29:12;;;;;;;24.73;14.03;;;;;;;;;;4369386;32;20201;-78
2020/12/11 10:31:41;;;;;;;25.80;14.60;;;;;;;;;;4365090;32;20194;-78
2020/12/11 10:34:19;;;;;;;32.77;15.63;;;;;;;;;;4373821;32;20163;-78
2020/12/11 10:36:49;;;;;;;40.60;17.53;;;;;;;;;;4373708;32;20154;-78
2020/12/11 10:39:26;;;;;;;44.53;23.33;;;;;;;;;;4370721;32;20182;-78
2020/12/11 10:42:01;;;;;;;30.83;16.37;;;;;;;;;;4372147;32;20163;-78
2020/12/11 10:44:33;;;;;;;31.43;17.00;;;;;;;;;;4359857;32;20174;-78
2020/12/11 10:46:59;;;;;;;30.00;16.77;;;;;;;;;;4369834;32;20252;-78
2020/12/11 10:49:24;;;;;;;31.20;17.37;;;;;;;;;;4365182;32;20659;-78
2020/12/11 10:51:49;;;;;;;30.47;16.33;;;;;;;;;;4365096;32;20167;-79
2020/12/11 10:54:18;;;;;;;27.87;15.70;;;;;;;;;;4362279;32;20198;-78
2020/12/11 10:56:53;;;;;;;28.93;15.73;;;;;;;;;;4369024;32;20192;-79
2020/12/11 10:59:27;;;;;;;26.97;15.80;;;;;;;;;;4346940;33;20622;-80
2020/12/11 11:01:55;;;;;;;28.63;15.53;;;;;;;;;;4360920;32;20201;-80
2020/12/11 11:04:29;;;;;;;27.83;15.13;;;;;;;;;;4372981;32;20159;-80
2020/12/11 11:07:00;;;;;;;30.33;16.53;;;;;;;;;;4370082;32;20165;-79
2020/12/11 11:09:34;;;;;;;29.30;16.20;;;;;;;;;;4369217;32;20274;-79
2020/12/11 11:12:49;;;;;;;31.77;16.90;;;;;;;;;;4350456;32;20669;-78
2020/12/11 11:28:49;;;;;;;32.77;15.93;;;;;;;;;;4381103;32;20169;-78
2020/12/11 11:31:28;;;;;;;32.07;16.53;;;;;;;;;;4357544;32;20168;-78
2020/12/11 11:33:56;;;;;;;37.80;20.47;;;;;;;;;;4368538;32;20151;-79
2020/12/11 11:36:27;;;;;;;29.73;15.50;;;;;;;;;;4369368;32;20162;-77
2020/12/11 11:38:52;;;;;;;31.17;16.60;;;;;;;;;;4363085;32;20159;-78
2020/12/11 11:41:44;;;;;;;28.57;16.27;;;;;;;;;;4370811;32;20272;-77
2020/12/11 11:46:39;;;;;;;32.03;18.17;;;;;;;;;;4370014;32;20174;-78
2020/12/11 11:49:04;;;;;;;27.73;15.83;;;;;;;;;;4364436;32;20354;-78
2020/12/11 11:51:43;;;;;;;31.27;16.20;;;;;;;;;;4367626;32;20223;-78
2020/12/11 11:54:08;;;;;;;30.50;16.13;;;;;;;;;;4364834;32;20150;-77
2020/12/11 11:56:41;;;;;;;30.00;15.73;;;;;;;;;;4370276;32;20228;-78
2020/12/11 11:59:10;;;;;;;26.53;14.63;;;;;;;;;;4371649;32;20197;-78
2020/12/11 12:01:54;;;;;;;29.07;15.57;;;;;;;;;;4364141;32;20158;-78
2020/12/11 12:04:23;;;;;;;26.83;15.70;;;;;;;;;;4360521;32;20222;-78
2020/12/11 12:06:49;;;;;;;27.97;15.97;;;;;;;;;;4367817;32;20189;-78
2020/12/11 12:09:17;;;;;;;32.57;17.07;;;;;;;;;;4361865;32;20183;-79
2020/12/11 12:11:45;;;;;;;31.20;16.57;;;;;;;;;;4366401;32;20167;-78
2020/12/11 12:14:14;;;;;;;29.10;16.20;;;;;;;;;;4369936;32;20166;-78
2020/12/11 12:16:43;;;;;;;29.77;16.53;;;;;;;;;;4368101;32;20158;-78
2020/12/11 12:19:28;;;;;;;27.57;15.37;;;;;;;;;;4349591;32;20155;-78
2020/12/11 12:27:36;;;;;;;33.03;19.40;;;;;;;;;;4374863;32;20580;-76
2020/12/11 12:30:10;;;;;;;30.83;16.87;;;;;;;;;;4361332;32;20151;-77
2020/12/11 12:33:05;;;;;;;31.23;17.93;;;;;;;;;;4362071;32;20205;-77
2020/12/11 12:38:18;;;;;;;27.67;15.80;;;;;;;;;;4377414;32;20193;-77
2020/12/11 12:42:16;;;;;;;29.47;16.90;;;;;;;;;;4364088;32;20260;-77
2020/12/11 12:43:32;;;;;;;27.20;15.53;;;;;;;;;;4377285;32;20189;-77
2020/12/11 12:46:03;;;;;;;29.93;17.17;;;;;;;;;;4363140;32;20159;-77
2020/12/11 12:48:28;;;;;;;30.07;16.03;;;;;;;;;;4363621;32;20170;-77
2020/12/11 12:50:59;;;;;;;28.27;16.17;;;;;;;;;;4364010;32;20452;-77
2020/12/11 12:53:29;;;;;;;31.50;17.87;;;;;;;;;;4364015;32;20147;-77
2020/12/11 12:58:47;;;;;;;32.43;15.47;;;;;;;;;;4377359;32;20153;-79
2020/12/11 13:01:21;;;;;;;25.67;16.60;;;;;;;;;;4363527;32;20165;-79
2020/12/11 13:06:12;;;;;;;26.17;15.50;;;;;;;;;;4377305;32;20139;-78
2020/12/11 13:08:37;;;;;;;30.67;16.80;;;;;;;;;;4362950;32;20471;-78
2020/12/11 13:11:21;;;;;;;31.70;15.53;;;;;;;;;;4363477;32;20162;-78
2020/12/11 13:14:04;;;;;;;25.63;15.70;;;;;;;;;;4363654;32;20188;-78
2020/12/11 13:16:32;;;;;;;24.83;14.40;;;;;;;;;;4363419;32;20162;-78
2020/12/11 13:18:58;;;;;;;27.67;16.10;;;;;;;;;;4376904;32;20127;-78
2020/12/11 13:21:30;;;;;;;24.37;14.63;;;;;;;;;;4363008;32;20162;-77
2020/12/11 13:26:47;;;;;;;27.97;16.13;;;;;;;;;;4377027;32;20154;-77
2020/12/11 13:29:18;;;;;;;26.23;15.20;;;;;;;;;;4363404;32;20158;-77
2020/12/11 13:31:45;;;;;;;28.40;17.03;;;;;;;;;;4363171;32;20205;-77
2020/12/11 13:34:10;;;;;;;24.37;14.87;;;;;;;;;;4362823;32;20196;-77
2020/12/11 13:36:39;;;;;;;25.10;15.80;;;;;;;;;;4363055;32;20592;-77
2020/12/11 13:39:04;;;;;;;31.23;16.63;;;;;;;;;;4376436;32;20512;-77
2020/12/11 13:41:35;;;;;;;27.23;14.93;;;;;;;;;;4376603;32;20146;-77
2020/12/11 13:44:03;;;;;;;29.60;16.90;;;;;;;;;;4361686;32;20162;-77
2020/12/11 13:46:36;;;;;;;25.13;14.43;;;;;;;;;;4362908;32;20480;-77
2020/12/11 13:49:04;;;;;;;28.07;16.00;;;;;;;;;;4376985;32;20188;-76
2020/12/11 13:51:41;;;;;;;25.73;15.87;;;;;;;;;;4362727;32;20215;-77
2020/12/11 13:54:18;;;;;;;26.37;15.40;;;;;;;;;;4362259;32;20568;-77
2020/12/11 13:56:50;;;;;;;26.47;15.47;;;;;;;;;;4347818;33;20163;-77
2020/12/11 13:59:24;;;;;;;23.83;14.87;;;;;;;;;;4348288;33;20584;-77
2020/12/11 14:02:04;;;;;;;28.07;16.20;;;;;;;;;;4346375;33;20166;-78
2020/12/11 14:04:35;;;;;;;25.67;16.10;;;;;;;;;;4347585;33;20155;-78
2020/12/11 14:07:01;;;;;;;26.03;15.53;;;;;;;;;;4361567;32;20308;-77
2020/12/11 14:09:29;;;;;;;29.17;15.87;;;;;;;;;;4347673;33;20581;-78
2020/12/11 14:11:57;;;;;;;30.63;16.53;;;;;;;;;;4347679;33;20166;-78
2020/12/11 14:14:23;;;;;;;25.47;14.97;;;;;;;;;;4347706;33;20159;-77
2020/12/11 14:16:50;;;;;;;28.27;16.13;;;;;;;;;;4347522;33;20584;-77
2020/12/11 14:22:07;;;;;;;30.00;16.57;;;;;;;;;;4361252;32;20143;-77
2020/12/11 14:24:35;;;;;;;27.17;16.20;;;;;;;;;;4361309;32;20197;-77
2020/12/11 14:27:01;;;;;;;26.03;15.13;;;;;;;;;;4347900;33;20170;-76
2020/12/11 14:29:29;;;;;;;27.00;16.23;;;;;;;;;;4347068;33;20154;-77
2020/12/11 14:31:54;;;;;;;29.83;16.53;;;;;;;;;;4360671;32;20151;-77
2020/12/11 14:34:19;;;;;;;27.53;16.10;;;;;;;;;;4360731;32;20150;-76
2020/12/11 14:36:48;;;;;;;24.87;15.10;;;;;;;;;;4347507;33;20325;-77
2020/12/11 14:39:16;;;;;;;30.70;16.70;;;;;;;;;;4347139;33;20159;-77
2020/12/11 14:41:42;;;;;;;27.03;16.13;;;;;;;;;;4346842;33;20167;-76
2020/12/11 14:44:08;;;;;;;29.90;16.40;;;;;;;;;;4360302;32;20197;-77
2020/12/11 14:46:33;;;;;;;33.50;18.47;;;;;;;;;;4347301;33;20159;-76
2020/12/11 14:48:59;;;;;;;32.73;18.23;;;;;;;;;;4361325;32;20155;-76
2020/12/11 14:51:32;;;;;;;28.10;16.93;;;;;;;;;;4347673;33;20178;-76
2020/12/11 14:53:59;;;;;;;23.43;14.47;;;;;;;;;;4347290;33;20200;-76
2020/12/11 14:56:29;;;;;;;26.23;16.43;;;;;;;;;;4360874;32;20468;-76
2020/12/11 14:58:54;;;;;;;23.60;14.93;;;;;;;;;;4346881;33;20159;-77
2020/12/11 15:01:30;;;;;;;24.30;15.87;;;;;;;;;;4346342;33;20182;-77
2020/12/11 15:03:58;;;;;;;27.43;16.17;;;;;;;;;;4347474;33;20572;-77
2020/12/11 15:06:24;;;;;;;24.90;15.17;;;;;;;;;;4347219;33;20250;-77
2020/12/11 15:08:49;;;;;;;28.20;14.90;;;;;;;;;;4346949;33;20589;-77
2020/12/11 15:11:15;;;;;;;24.43;14.27;;;;;;;;;;4347125;33;20159;-77
2020/12/11 15:13:42;;;;;;;27.00;15.47;;;;;;;;;;4346815;33;20483;-77
2020/12/11 15:16:12;;;;;;;26.50;15.47;;;;;;;;;;4346671;33;20185;-77
2020/12/11 15:18:38;;;;;;;25.57;15.07;;;;;;;;;;4347269;33;20163;-77
2020/12/11 15:21:03;;;;;;;24.80;13.53;;;;;;;;;;4360481;32;20428;-78
2020/12/11 15:23:29;;;;;;;23.43;15.10;;;;;;;;;;4360143;33;20551;-78
2020/12/11 15:25:57;;;;;;;23.63;14.20;;;;;;;;;;4361324;32;20533;-78
2020/12/11 15:28:29;;;;;;;22.67;13.40;;;;;;;;;;4361516;32;20158;-77
2020/12/11 15:30:58;;;;;;;24.80;14.20;;;;;;;;;;4361397;33;20131;-78
2020/12/11 15:33:23;;;;;;;26.27;15.47;;;;;;;;;;4360503;32;20185;-77